Kaiser — NHJK — position and weather

sailwx.info

Track history (hours):
 
Tides and Currents Weather Stations Pressure Air Temp Water Temp Dewpoint Dewpoint Depression Visibility Wind Speed Wind Dir Waves Ship Positions

Kaiser

Last reported at 2017-Nov-18 20:23 UTC. Time now 2017-Nov-21 06:31 UTC.
Position N 32°42' W 117°11'.

; draft 8.5 m.

Type: Military. MMSI: 303849000.

Date/timePositionNaut miles runAvg speedWind from/ knotsBaromVisibWave heightAir tempDewpointWater temp
2017-Nov-18 20:23N 32°42' W 117°11'1 1.9
2017-Nov-18 19:59N 32°43' W 117°11'3 5.7
2017-Nov-18 19:26N 32°40' W 117°14'4 8.9
2017-Nov-18 19:01N 32°37' W 117°13'4 8.2
2017-Nov-18 18:29N 32°39' W 117°18'510.2
2017-Nov-18 18:00N 32°43' W 117°20'5 9.8
2017-Nov-18 17:30N 32°48' W 117°22'  
2017-Nov-10 01:47N 32°39' W 117°18'2 8.9
2017-Nov-10 01:31N 32°37' W 117°17'5 5.9
2017-Nov-10 00:37N 32°42' W 117°14'1 8.9
2017-Nov-10 00:30N 32°43' W 117°13'  
Track history (hours):
 
Tides and Currents Weather Stations Pressure Air Temp Water Temp Dewpoint Dewpoint Depression Visibility Wind Speed Wind Dir Waves Ship Positions

Kaiser

Last reported at 2017-Nov-18 20:23 UTC. Time now 2017-Nov-21 06:31 UTC.
Position N 32°42' W 117°11'.

; draft 8.5 m.

Type: Military. MMSI: 303849000.

Date/timePositionNaut miles runAvg speedWind from/ knotsBaromVisibWave heightAir tempDewpointWater temp
2017-Nov-18 20:23N 32°42' W 117°11'1 1.9
2017-Nov-18 19:59N 32°43' W 117°11'3 5.7
2017-Nov-18 19:26N 32°40' W 117°14'4 8.9
2017-Nov-18 19:01N 32°37' W 117°13'4 8.2
2017-Nov-18 18:29N 32°39' W 117°18'510.2
2017-Nov-18 18:00N 32°43' W 117°20'5 9.8
2017-Nov-18 17:30N 32°48' W 117°22'  
2017-Nov-10 01:47N 32°39' W 117°18'2 8.9
2017-Nov-10 01:31N 32°37' W 117°17'5 5.9
2017-Nov-10 00:37N 32°42' W 117°14'1 8.9
2017-Nov-10 00:30N 32°43' W 117°13'  

Dump ship's entire track history